Time;durP1;ratioP1;P1;durP2;ratioP2;P2;SDS_P1;SDS_P2;PMS_P1;PMS_P2;Temp;Humidity;BMP_temperature;BMP_pressure;BME280_temperature;BME280_humidity;BME280_pressure;Samples;Min_cycle;Max_cycle;Signal;HPM_P1;HPM_P2
2022/07/19 00:01:27;;;;;;;3.13;2.22;;;;;;;;;;5127155;27;20044;-77
2022/07/19 00:03:56;;;;;;;6.47;2.30;;;;;;;;;;5126610;27;20036;-76
2022/07/19 00:06:23;;;;;;;11.23;2.47;;;;;;;;;;5126088;27;20044;-76
2022/07/19 00:08:49;;;;;;;6.90;2.35;;;;;;;;;;5109518;27;20505;-77
2022/07/19 00:11:15;;;;;;;4.50;2.20;;;;;;;;;;5126958;27;20123;-77
2022/07/19 00:13:41;;;;;;;20.83;4.10;;;;;;;;;;5109436;27;20074;-77
2022/07/19 00:16:08;;;;;;;5.95;2.00;;;;;;;;;;5127906;27;20041;-77
2022/07/19 00:18:34;;;;;;;5.47;2.00;;;;;;;;;;5123246;27;20089;-77
2022/07/19 00:21:00;;;;;;;7.28;2.60;;;;;;;;;;5108991;27;20043;-77
2022/07/19 00:23:26;;;;;;;4.78;2.17;;;;;;;;;;5126541;27;20050;-77
2022/07/19 00:25:52;;;;;;;3.83;1.80;;;;;;;;;;5126713;27;20602;-77
2022/07/19 00:28:18;;;;;;;6.45;2.20;;;;;;;;;;5106370;27;20441;-77
2022/07/19 00:30:44;;;;;;;3.65;2.00;;;;;;;;;;5126271;27;20555;-76
2022/07/19 00:33:10;;;;;;;7.68;3.08;;;;;;;;;;5124689;27;20046;-76
2022/07/19 00:35:37;;;;;;;4.75;2.13;;;;;;;;;;5125306;27;20580;-77
2022/07/19 00:38:06;;;;;;;4.43;2.00;;;;;;;;;;5126962;27;20039;-77
2022/07/19 00:40:32;;;;;;;5.60;2.53;;;;;;;;;;5126585;27;20035;-76
2022/07/19 00:42:59;;;;;;;4.40;2.40;;;;;;;;;;5108042;27;20134;-77
2022/07/19 00:45:25;;;;;;;6.57;2.65;;;;;;;;;;5126187;27;20510;-77
2022/07/19 00:47:51;;;;;;;6.50;2.55;;;;;;;;;;5126335;27;20857;-76
2022/07/19 00:50:17;;;;;;;5.88;1.85;;;;;;;;;;5126153;27;20095;-76
2022/07/19 00:52:46;;;;;;;8.30;2.38;;;;;;;;;;5124380;27;20043;-76
2022/07/19 00:55:12;;;;;;;6.03;2.20;;;;;;;;;;5109643;27;20047;-76
2022/07/19 00:57:38;;;;;;;3.22;1.77;;;;;;;;;;5123590;27;20167;-75
2022/07/19 01:00:06;;;;;;;6.75;2.40;;;;;;;;;;5126324;27;20077;-77
2022/07/19 01:02:32;;;;;;;4.70;1.88;;;;;;;;;;5124476;27;20035;-76
2022/07/19 01:04:59;;;;;;;6.38;2.55;;;;;;;;;;5126446;27;20050;-75
2022/07/19 01:07:25;;;;;;;4.32;2.58;;;;;;;;;;5127213;27;20042;-76
2022/07/19 01:09:51;;;;;;;3.97;2.03;;;;;;;;;;5125256;27;20130;-76
2022/07/19 01:12:18;;;;;;;4.70;2.20;;;;;;;;;;5123059;27;20060;-76
2022/07/19 01:14:44;;;;;;;5.60;2.25;;;;;;;;;;5108319;27;20040;-76
2022/07/19 01:17:10;;;;;;;9.15;2.60;;;;;;;;;;5126582;27;20082;-76
2022/07/19 01:19:36;;;;;;;3.65;1.70;;;;;;;;;;5125415;27;20039;-76
2022/07/19 01:22:03;;;;;;;8.50;2.05;;;;;;;;;;5126403;27;20039;-76
2022/07/19 01:24:29;;;;;;;4.40;2.03;;;;;;;;;;5108464;27;20461;-76
2022/07/19 01:26:56;;;;;;;3.25;2.35;;;;;;;;;;5124095;27;20050;-76
2022/07/19 01:29:22;;;;;;;6.20;2.45;;;;;;;;;;5120915;27;20051;-76
2022/07/19 01:31:48;;;;;;;4.57;2.75;;;;;;;;;;5107822;27;20051;-75
2022/07/19 01:34:14;;;;;;;11.82;2.65;;;;;;;;;;5126047;27;20044;-76
2022/07/19 01:36:40;;;;;;;8.35;2.10;;;;;;;;;;5124179;27;20039;-76
2022/07/19 01:39:06;;;;;;;5.63;1.90;;;;;;;;;;5125324;27;20044;-76
2022/07/19 01:41:32;;;;;;;11.73;2.50;;;;;;;;;;5125062;27;20043;-76
2022/07/19 01:43:58;;;;;;;9.32;2.90;;;;;;;;;;5125569;27;20082;-76
2022/07/19 01:46:24;;;;;;;6.65;2.08;;;;;;;;;;5123144;27;20638;-75
2022/07/19 01:48:50;;;;;;;8.13;2.30;;;;;;;;;;5124288;27;20039;-76
2022/07/19 01:51:16;;;;;;;4.90;2.72;;;;;;;;;;5126646;27;20040;-76
2022/07/19 01:53:42;;;;;;;7.93;2.30;;;;;;;;;;5124133;27;20065;-76
2022/07/19 01:56:09;;;;;;;5.25;2.03;;;;;;;;;;5106159;27;20044;-76
2022/07/19 01:58:35;;;;;;;6.25;2.58;;;;;;;;;;5124060;27;20039;-76
2022/07/19 02:01:01;;;;;;;6.20;1.85;;;;;;;;;;5108236;27;20529;-76
2022/07/19 02:03:27;;;;;;;6.85;2.53;;;;;;;;;;5123263;27;20043;-76
2022/07/19 02:05:53;;;;;;;7.97;2.22;;;;;;;;;;5108128;27;20662;-76
2022/07/19 02:08:19;;;;;;;6.82;2.13;;;;;;;;;;5125968;27;20043;-76
2022/07/19 02:10:45;;;;;;;5.82;2.55;;;;;;;;;;5124162;27;20678;-76
2022/07/19 02:13:11;;;;;;;4.80;2.83;;;;;;;;;;5123245;27;20141;-76
2022/07/19 02:15:37;;;;;;;8.00;3.22;;;;;;;;;;5106815;27;20090;-76
2022/07/19 02:18:04;;;;;;;5.20;2.17;;;;;;;;;;5127440;27;20050;-76
2022/07/19 02:20:30;;;;;;;6.25;2.70;;;;;;;;;;5110809;27;20092;-76
2022/07/19 02:22:56;;;;;;;6.65;2.67;;;;;;;;;;5127100;27;20041;-76
2022/07/19 02:25:22;;;;;;;9.88;3.75;;;;;;;;;;5129204;27;20046;-76
2022/07/19 02:27:49;;;;;;;5.43;2.22;;;;;;;;;;5126331;27;20081;-76
2022/07/19 02:30:16;;;;;;;6.30;2.20;;;;;;;;;;5126842;27;20066;-75
2022/07/19 02:32:43;;;;;;;4.38;2.53;;;;;;;;;;5109099;27;20031;-76
2022/07/19 02:35:10;;;;;;;4.07;2.13;;;;;;;;;;5127904;27;20048;-76
2022/07/19 02:37:37;;;;;;;4.82;2.42;;;;;;;;;;5126371;27;20159;-76
2022/07/19 02:40:04;;;;;;;9.70;3.13;;;;;;;;;;5128612;27;20050;-76
2022/07/19 02:42:30;;;;;;;4.97;2.78;;;;;;;;;;5129884;27;20146;-76
2022/07/19 02:44:56;;;;;;;4.35;2.50;;;;;;;;;;5125984;27;20796;-76
2022/07/19 02:47:22;;;;;;;9.20;4.00;;;;;;;;;;5127715;27;20391;-76
2022/07/19 02:49:49;;;;;;;4.75;2.42;;;;;;;;;;5126560;27;20543;-76
2022/07/19 02:52:15;;;;;;;3.58;1.90;;;;;;;;;;5127605;27;20486;-76
2022/07/19 02:54:41;;;;;;;4.47;1.80;;;;;;;;;;5128219;27;20122;-75
2022/07/19 02:57:07;;;;;;;2.78;1.98;;;;;;;;;;5128191;27;20040;-76
2022/07/19 02:59:33;;;;;;;5.38;2.20;;;;;;;;;;5127750;27;20024;-76
2022/07/19 03:01:59;;;;;;;5.70;2.88;;;;;;;;;;5126710;27;20039;-75
2022/07/19 03:04:25;;;;;;;4.88;2.22;;;;;;;;;;5125436;27;20090;-76
2022/07/19 03:06:51;;;;;;;6.20;2.70;;;;;;;;;;5127490;27;20158;-76
2022/07/19 03:09:19;;;;;;;8.57;2.22;;;;;;;;;;5126913;27;20067;-76
2022/07/19 03:11:45;;;;;;;4.82;2.20;;;;;;;;;;5127441;27;20039;-76
2022/07/19 03:14:11;;;;;;;5.80;2.78;;;;;;;;;;5129081;27;20075;-76
2022/07/19 03:16:38;;;;;;;5.97;2.20;;;;;;;;;;5125874;27;20051;-76
2022/07/19 03:19:04;;;;;;;9.23;2.67;;;;;;;;;;5110483;27;20474;-76
2022/07/19 03:21:30;;;;;;;8.55;2.10;;;;;;;;;;5109206;27;20088;-76
2022/07/19 03:23:56;;;;;;;4.57;2.40;;;;;;;;;;5127587;27;20047;-76
2022/07/19 03:26:22;;;;;;;4.60;2.65;;;;;;;;;;5125738;27;20044;-76
2022/07/19 03:28:48;;;;;;;7.75;2.60;;;;;;;;;;5124734;27;20047;-76
2022/07/19 03:31:14;;;;;;;5.78;2.80;;;;;;;;;;5127946;27;20039;-76
2022/07/19 03:33:41;;;;;;;5.60;1.92;;;;;;;;;;5108893;27;20620;-76
2022/07/19 03:36:07;;;;;;;5.47;2.38;;;;;;;;;;5126391;27;20074;-76
2022/07/19 03:38:33;;;;;;;6.53;2.50;;;;;;;;;;5110306;27;20075;-76
2022/07/19 03:40:59;;;;;;;4.85;2.17;;;;;;;;;;5125368;27;20120;-77
2022/07/19 03:43:25;;;;;;;3.85;2.30;;;;;;;;;;5128160;27;20162;-76
2022/07/19 03:45:52;;;;;;;8.68;2.53;;;;;;;;;;5127042;27;20047;-76
2022/07/19 03:48:18;;;;;;;4.72;2.75;;;;;;;;;;5126417;27;20035;-76
2022/07/19 03:50:44;;;;;;;4.43;2.20;;;;;;;;;;5125471;27;20531;-76
2022/07/19 03:53:10;;;;;;;6.90;2.63;;;;;;;;;;5126107;27;20563;-76
2022/07/19 03:55:36;;;;;;;4.55;2.45;;;;;;;;;;5127565;27;20048;-76
2022/07/19 03:58:02;;;;;;;4.68;2.45;;;;;;;;;;5127112;27;20051;-76
2022/07/19 04:00:29;;;;;;;7.50;2.40;;;;;;;;;;5126012;27;20065;-75
2022/07/19 04:02:55;;;;;;;7.07;3.08;;;;;;;;;;5127915;27;20127;-76
2022/07/19 04:05:21;;;;;;;4.40;2.20;;;;;;;;;;5127865;27;20078;-76
2022/07/19 04:07:47;;;;;;;6.95;2.28;;;;;;;;;;5125498;27;20070;-76
2022/07/19 04:10:13;;;;;;;8.05;3.10;;;;;;;;;;5110788;27;20039;-76
2022/07/19 04:12:39;;;;;;;6.28;2.15;;;;;;;;;;5108415;27;20085;-76
2022/07/19 04:15:06;;;;;;;5.88;2.45;;;;;;;;;;5126439;27;20379;-76
2022/07/19 04:17:32;;;;;;;7.32;2.67;;;;;;;;;;5127109;27;20043;-76
2022/07/19 04:19:58;;;;;;;5.75;3.22;;;;;;;;;;5108727;27;20031;-76
2022/07/19 04:22:24;;;;;;;7.15;3.08;;;;;;;;;;5109871;27;20093;-76
2022/07/19 04:24:51;;;;;;;8.27;3.05;;;;;;;;;;5122754;27;20039;-76
2022/07/19 04:27:17;;;;;;;5.80;2.55;;;;;;;;;;5127285;27;20085;-76
2022/07/19 04:29:43;;;;;;;5.68;2.83;;;;;;;;;;5125152;27;20080;-76
2022/07/19 04:32:09;;;;;;;6.65;2.85;;;;;;;;;;5110083;27;20563;-76
2022/07/19 04:34:35;;;;;;;8.70;2.67;;;;;;;;;;5124307;27;20407;-76
2022/07/19 04:37:01;;;;;;;4.10;2.45;;;;;;;;;;5125288;27;20045;-76
2022/07/19 04:39:27;;;;;;;6.15;2.65;;;;;;;;;;5124555;27;20043;-76
2022/07/19 04:41:53;;;;;;;6.15;2.42;;;;;;;;;;5127540;27;20078;-76
2022/07/19 04:44:19;;;;;;;3.90;2.42;;;;;;;;;;5126430;27;20126;-75
2022/07/19 04:46:45;;;;;;;5.53;2.35;;;;;;;;;;5107269;27;20035;-76
2022/07/19 04:49:11;;;;;;;5.78;2.30;;;;;;;;;;5127246;27;20064;-76
2022/07/19 04:51:37;;;;;;;5.25;2.50;;;;;;;;;;5124270;27;20043;-76
2022/07/19 04:54:04;;;;;;;5.20;2.65;;;;;;;;;;5126153;27;20043;-76
2022/07/19 04:56:30;;;;;;;5.15;2.47;;;;;;;;;;5124617;27;20589;-76
2022/07/19 04:58:56;;;;;;;8.98;3.95;;;;;;;;;;5126659;27;20541;-76
2022/07/19 05:01:22;;;;;;;4.70;2.50;;;;;;;;;;5125395;27;20769;-76
2022/07/19 05:03:48;;;;;;;4.18;2.30;;;;;;;;;;5108702;27;20162;-76
2022/07/19 05:06:14;;;;;;;13.43;4.35;;;;;;;;;;5126588;27;20065;-76
2022/07/19 05:08:40;;;;;;;9.68;3.03;;;;;;;;;;5124014;27;20577;-76
2022/07/19 05:11:06;;;;;;;4.63;2.63;;;;;;;;;;5124275;27;20418;-76
2022/07/19 05:13:32;;;;;;;8.13;2.65;;;;;;;;;;5108330;27;20028;-76
2022/07/19 05:15:58;;;;;;;6.28;2.50;;;;;;;;;;5124612;27;20092;-76
2022/07/19 05:18:24;;;;;;;4.43;3.17;;;;;;;;;;5123401;27;20039;-76
2022/07/19 05:20:50;;;;;;;7.03;2.92;;;;;;;;;;5125972;27;20054;-76
2022/07/19 05:23:16;;;;;;;6.35;2.83;;;;;;;;;;5107504;27;20043;-76
2022/07/19 05:25:43;;;;;;;6.15;2.70;;;;;;;;;;5121986;27;20039;-76
2022/07/19 05:28:09;;;;;;;8.05;3.08;;;;;;;;;;5124208;27;20485;-76
2022/07/19 05:30:35;;;;;;;8.07;4.38;;;;;;;;;;5124436;27;20036;-76
2022/07/19 05:33:01;;;;;;;6.93;3.15;;;;;;;;;;5122888;27;20523;-76
2022/07/19 05:35:27;;;;;;;10.07;2.55;;;;;;;;;;5124884;27;20713;-76
2022/07/19 05:37:53;;;;;;;5.97;2.90;;;;;;;;;;5109282;27;20473;-76
2022/07/19 05:40:19;;;;;;;4.30;2.65;;;;;;;;;;5124990;27;20358;-76
2022/07/19 05:42:45;;;;;;;6.68;2.58;;;;;;;;;;5106539;27;20039;-76
2022/07/19 05:45:11;;;;;;;11.38;3.60;;;;;;;;;;5126563;27;20046;-74
2022/07/19 05:47:37;;;;;;;10.27;2.70;;;;;;;;;;5108596;27;20816;-77
2022/07/19 05:50:04;;;;;;;8.38;3.38;;;;;;;;;;5124428;27;20501;-77
2022/07/19 05:52:30;;;;;;;9.00;3.72;;;;;;;;;;5125986;27;20042;-77
2022/07/19 05:54:56;;;;;;;11.60;3.58;;;;;;;;;;5122267;27;20043;-76
2022/07/19 05:57:22;;;;;;;10.10;3.28;;;;;;;;;;5124718;27;20749;-76
2022/07/19 05:59:48;;;;;;;6.30;3.08;;;;;;;;;;5123181;27;20043;-76
2022/07/19 06:02:14;;;;;;;7.63;3.78;;;;;;;;;;5123894;27;20046;-76
2022/07/19 06:04:40;;;;;;;6.00;2.60;;;;;;;;;;5121038;27;20027;-76
2022/07/19 06:07:07;;;;;;;8.57;3.17;;;;;;;;;;5123698;27;20074;-76
2022/07/19 06:09:33;;;;;;;10.68;2.65;;;;;;;;;;5122314;27;20097;-77
2022/07/19 06:11:59;;;;;;;7.47;3.47;;;;;;;;;;5125230;27;20035;-76
2022/07/19 06:14:25;;;;;;;7.55;3.35;;;;;;;;;;5105390;27;20043;-76
2022/07/19 06:16:53;;;;;;;6.78;3.25;;;;;;;;;;5124122;27;20043;-76
2022/07/19 06:19:19;;;;;;;9.60;3.85;;;;;;;;;;5123873;27;20277;-76
2022/07/19 06:21:45;;;;;;;6.75;3.25;;;;;;;;;;5123121;27;20410;-77
2022/07/19 06:24:11;;;;;;;9.43;3.28;;;;;;;;;;5123993;27;20057;-76
2022/07/19 06:26:37;;;;;;;12.07;2.90;;;;;;;;;;5122863;27;20043;-76
2022/07/19 06:29:04;;;;;;;7.35;3.72;;;;;;;;;;5122249;27;20051;-76
2022/07/19 06:31:30;;;;;;;6.10;3.53;;;;;;;;;;5123857;27;20094;-76
2022/07/19 06:33:56;;;;;;;4.70;3.08;;;;;;;;;;5123122;27;20911;-76
2022/07/19 06:36:22;;;;;;;7.38;3.90;;;;;;;;;;5124553;27;20046;-76
2022/07/19 06:38:49;;;;;;;7.65;3.30;;;;;;;;;;5125918;27;20049;-76
2022/07/19 06:41:16;;;;;;;9.88;4.57;;;;;;;;;;5105215;27;20071;-76
2022/07/19 06:43:42;;;;;;;10.65;3.30;;;;;;;;;;5123497;27;20585;-77
2022/07/19 06:46:08;;;;;;;10.73;4.18;;;;;;;;;;5124628;27;20447;-76
2022/07/19 06:48:34;;;;;;;9.10;3.47;;;;;;;;;;5124620;27;20043;-76
2022/07/19 06:51:00;;;;;;;10.43;3.00;;;;;;;;;;5122226;27;20929;-77
2022/07/19 06:53:26;;;;;;;5.53;3.10;;;;;;;;;;5105491;27;20043;-77
2022/07/19 06:55:53;;;;;;;8.30;2.95;;;;;;;;;;5125837;27;20047;-76
2022/07/19 06:58:19;;;;;;;15.55;3.38;;;;;;;;;;5124881;27;20097;-76
2022/07/19 07:00:48;;;;;;;8.07;3.40;;;;;;;;;;5104643;27;20039;-76
2022/07/19 07:03:15;;;;;;;7.18;3.55;;;;;;;;;;5107493;27;20116;-76
2022/07/19 07:05:41;;;;;;;8.05;3.10;;;;;;;;;;5110967;27;20067;-77
2022/07/19 07:08:07;;;;;;;10.75;3.53;;;;;;;;;;5128180;27;20055;-76
2022/07/19 07:10:35;;;;;;;10.27;3.45;;;;;;;;;;5127953;27;20429;-79
2022/07/19 07:13:01;;;;;;;7.63;3.55;;;;;;;;;;5125222;27;20071;-77
2022/07/19 07:15:27;;;;;;;8.25;3.92;;;;;;;;;;5125215;27;20067;-76
2022/07/19 07:17:53;;;;;;;11.68;4.70;;;;;;;;;;5124446;27;20039;-76
2022/07/19 07:20:19;;;;;;;7.20;3.78;;;;;;;;;;5108091;27;20148;-76
2022/07/19 07:22:45;;;;;;;10.10;3.72;;;;;;;;;;5125583;27;20035;-76
2022/07/19 07:25:12;;;;;;;6.28;3.78;;;;;;;;;;5128102;27;20047;-76
2022/07/19 07:27:38;;;;;;;6.40;3.97;;;;;;;;;;5128110;27;20078;-76
2022/07/19 07:30:04;;;;;;;7.43;3.38;;;;;;;;;;5124735;27;20134;-76
2022/07/19 07:32:30;;;;;;;8.48;3.15;;;;;;;;;;5127864;27;20727;-76
2022/07/19 07:34:56;;;;;;;13.90;3.75;;;;;;;;;;5125035;27;20046;-76
2022/07/19 07:37:23;;;;;;;8.43;3.58;;;;;;;;;;5127942;27;20039;-76
2022/07/19 07:39:49;;;;;;;7.15;4.13;;;;;;;;;;5126307;27;20504;-76
2022/07/19 07:42:15;;;;;;;5.18;2.70;;;;;;;;;;5126100;27;20119;-76
2022/07/19 07:44:41;;;;;;;10.05;3.38;;;;;;;;;;5125862;27;20035;-76
2022/07/19 07:47:10;;;;;;;5.95;3.35;;;;;;;;;;5128570;27;20105;-76
2022/07/19 07:49:39;;;;;;;5.13;3.17;;;;;;;;;;5126775;27;20504;-76
2022/07/19 07:52:06;;;;;;;9.65;3.53;;;;;;;;;;5126325;27;20040;-76
2022/07/19 07:54:32;;;;;;;4.22;2.78;;;;;;;;;;5122974;27;20043;-76
2022/07/19 07:56:58;;;;;;;7.10;3.28;;;;;;;;;;5124984;27;20722;-77
2022/07/19 07:59:24;;;;;;;10.07;3.75;;;;;;;;;;5127126;27;20039;-75
2022/07/19 08:01:51;;;;;;;4.35;3.00;;;;;;;;;;5125820;27;20710;-77
2022/07/19 08:04:17;;;;;;;5.75;2.85;;;;;;;;;;5126424;27;20051;-76
2022/07/19 08:06:43;;;;;;;7.97;3.55;;;;;;;;;;5127650;27;20580;-76
2022/07/19 08:09:09;;;;;;;9.07;3.58;;;;;;;;;;5125533;27;20051;-76
2022/07/19 08:11:35;;;;;;;9.32;4.07;;;;;;;;;;5128141;27;20031;-76
2022/07/19 08:14:01;;;;;;;8.60;3.53;;;;;;;;;;5126276;27;20089;-76
2022/07/19 08:16:27;;;;;;;7.82;3.38;;;;;;;;;;5123359;27;20138;-76
2022/07/19 08:18:53;;;;;;;4.90;3.60;;;;;;;;;;5126510;27;20153;-76
2022/07/19 08:21:19;;;;;;;8.95;3.17;;;;;;;;;;5109091;27;20071;-76
2022/07/19 08:23:46;;;;;;;10.73;3.50;;;;;;;;;;5125812;27;20035;-76
2022/07/19 08:26:12;;;;;;;10.23;3.25;;;;;;;;;;5122599;27;20039;-76
2022/07/19 08:28:38;;;;;;;5.95;3.67;;;;;;;;;;5124683;27;20047;-76
2022/07/19 08:31:04;;;;;;;10.90;3.78;;;;;;;;;;5127446;27;20752;-76
2022/07/19 08:33:30;;;;;;;6.60;4.78;;;;;;;;;;5126360;27;20064;-76
2022/07/19 08:35:56;;;;;;;13.25;4.00;;;;;;;;;;5125847;27;20044;-76
2022/07/19 08:38:22;;;;;;;8.35;3.55;;;;;;;;;;5125193;27;20055;-76
2022/07/19 08:40:51;;;;;;;8.40;3.75;;;;;;;;;;5126466;27;20183;-76
2022/07/19 08:43:18;;;;;;;6.68;3.38;;;;;;;;;;5125432;27;20053;-76
2022/07/19 08:45:44;;;;;;;7.93;3.75;;;;;;;;;;5126831;27;20047;-76
2022/07/19 08:48:10;;;;;;;7.88;3.85;;;;;;;;;;5122553;27;20044;-76
2022/07/19 08:50:37;;;;;;;7.50;3.55;;;;;;;;;;5108991;27;20041;-76
2022/07/19 08:53:04;;;;;;;8.60;4.00;;;;;;;;;;5107525;27;20039;-76
2022/07/19 08:55:30;;;;;;;12.15;4.38;;;;;;;;;;5125457;27;20046;-76
2022/07/19 08:57:57;;;;;;;8.80;3.60;;;;;;;;;;5124424;27;20435;-76
2022/07/19 09:00:23;;;;;;;10.20;4.20;;;;;;;;;;5126420;27;20104;-76
2022/07/19 09:03:08;;;;;;;6.25;3.40;;;;;;;;;;5122536;27;20032;-76
2022/07/19 09:05:35;;;;;;;5.03;3.83;;;;;;;;;;5124725;27;20113;-76
2022/07/19 09:08:01;;;;;;;8.13;4.20;;;;;;;;;;5124193;27;20050;-76
2022/07/19 09:10:27;;;;;;;8.57;3.60;;;;;;;;;;5124502;27;20406;-76
2022/07/19 09:13:02;;;;;;;12.05;3.67;;;;;;;;;;5123402;27;20046;-76
2022/07/19 09:15:49;;;;;;;12.30;4.85;;;29.40;66.70;;;;;;5105227;27;20047;-76
2022/07/19 09:18:19;;;;;;;10.48;3.70;;;27.70;74.40;;;;;;5125078;27;20039;-76
2022/07/19 09:20:47;;;;;;;6.88;3.67;;;27.70;74.70;;;;;;5105236;27;20036;-76
2022/07/19 09:23:13;;;;;;;9.93;3.72;;;27.70;74.70;;;;;;5120177;27;20196;-76
2022/07/19 09:25:41;;;;;;;8.05;4.68;;;27.70;74.80;;;;;;5123402;27;20100;-76
2022/07/19 09:28:08;;;;;;;11.10;5.05;;;27.80;75.60;;;;;;5122451;27;20710;-76
2022/07/19 09:30:40;;;;;;;9.38;5.38;;;27.80;74.90;;;;;;5124406;27;20108;-76
2022/07/19 09:33:08;;;;;;;9.10;4.45;;;27.80;74.90;;;;;;5122886;27;20148;-76
2022/07/19 09:35:44;;;;;;;7.55;3.95;;;27.80;75.00;;;;;;5123696;27;20495;-76
2022/07/19 09:38:21;;;;;;;6.25;4.35;;;27.80;75.10;;;;;;5125258;27;20042;-76
2022/07/19 09:40:48;;;;;;;8.98;4.07;;;27.90;75.20;;;;;;5125433;27;20046;-76
2022/07/19 09:43:15;;;;;;;9.35;4.40;;;27.90;75.10;;;;;;5123349;27;20051;-74
2022/07/19 09:45:40;;;;;;;11.40;4.63;;;27.90;75.00;;;;;;5124649;27;20066;-74
2022/07/19 09:48:06;;;;;;;6.65;3.85;;;28.00;75.00;;;;;;5122410;27;20054;-75
2022/07/19 09:50:32;;;;;;;7.72;4.57;;;28.00;74.90;;;;;;5122964;27;20065;-75
2022/07/19 09:53:01;;;;;;;11.63;4.25;;;28.00;74.70;;;;;;5123642;27;20045;-75
2022/07/19 09:55:27;;;;;;;7.10;4.95;;;28.00;74.60;;;;;;5125055;27;20097;-75
2022/07/19 09:57:56;;;;;;;5.55;4.15;;;28.10;74.70;;;;;;5121282;27;20055;-75
2022/07/19 10:00:24;;;;;;;7.28;3.90;;;28.10;74.60;;;;;;5119100;27;20993;-75
2022/07/19 10:03:00;;;;;;;12.75;5.07;;;28.10;74.70;;;;;;5121295;27;20490;-75
2022/07/19 10:05:29;;;;;;;11.43;4.50;;;28.10;74.60;;;;;;5124965;27;20047;-75
2022/07/19 10:07:55;;;;;;;6.65;4.47;;;28.20;74.60;;;;;;5123275;27;20040;-75
2022/07/19 10:10:23;;;;;;;6.32;3.90;;;28.20;74.40;;;;;;5126387;27;20043;-75
2022/07/19 10:12:50;;;;;;;8.48;3.63;;;28.30;74.30;;;;;;5123544;27;20605;-75
2022/07/19 10:15:17;;;;;;;8.10;4.65;;;28.30;74.10;;;;;;5124927;27;20126;-75
2022/07/19 10:17:52;;;;;;;6.50;3.72;;;28.40;74.00;;;;;;5124345;27;20489;-75
2022/07/19 10:20:25;;;;;;;10.30;3.58;;;28.40;73.70;;;;;;5125835;27;20093;-75
2022/07/19 10:22:51;;;;;;;8.15;3.65;;;28.40;73.60;;;;;;5123962;27;20047;-75
2022/07/19 10:25:18;;;;;;;7.03;3.25;;;28.40;73.50;;;;;;5123129;27;20074;-75
2022/07/19 10:27:54;;;;;;;6.18;3.78;;;28.50;73.60;;;;;;5125521;27;20092;-75
2022/07/19 10:30:23;;;;;;;5.80;3.70;;;28.60;73.50;;;;;;5123816;27;20039;-75
2022/07/19 10:32:51;;;;;;;8.00;3.83;;;28.60;73.40;;;;;;5123450;27;20634;-75
2022/07/19 10:35:26;;;;;;;5.75;4.13;;;28.70;73.30;;;;;;5124575;27;20114;-75
2022/07/19 10:37:54;;;;;;;8.13;4.75;;;28.70;73.00;;;;;;5109073;27;20047;-75
2022/07/19 10:40:42;;;;;;;14.05;4.65;;;28.80;72.90;;;;;;5129714;27;20060;-76
2022/07/19 10:43:18;;;;;;;7.13;4.10;;;28.80;72.70;;;;;;5110402;27;20046;-75
2022/07/19 10:46:03;;;;;;;7.95;4.32;;;28.80;72.70;;;;;;5111240;27;20067;-74
2022/07/19 10:48:49;;;;;;;6.55;3.67;;;28.90;72.60;;;;;;5127745;27;20039;-75
2022/07/19 10:51:30;;;;;;;6.80;3.65;;;28.90;72.50;;;;;;5110966;27;20040;-75
2022/07/19 10:54:00;;;;;;;7.40;4.45;;;28.90;72.30;;;;;;5128932;27;20920;-75
2022/07/19 10:56:31;;;;;;;6.65;4.03;;;28.90;72.30;;;;;;5124565;27;20048;-75
2022/07/19 10:58:58;;;;;;;10.10;5.45;;;29.00;72.20;;;;;;5128650;27;20043;-75
2022/07/19 11:01:26;;;;;;;5.35;3.85;;;28.90;72.10;;;;;;5125978;27;20471;-75
2022/07/19 11:03:53;;;;;;;4.97;3.85;;;29.10;72.70;;;;;;5129161;27;20043;-76
2022/07/19 11:06:28;;;;;;;5.60;4.13;;;29.10;72.00;;;;;;5127709;27;20122;-75
2022/07/19 11:08:57;;;;;;;6.50;3.85;;;29.10;72.00;;;;;;5126452;27;22434;-75
2022/07/19 11:11:25;;;;;;;4.60;3.35;;;29.20;72.00;;;;;;5121501;27;20043;-76
2022/07/19 11:13:53;;;;;;;7.10;4.60;;;29.10;71.80;;;;;;5126015;27;20035;-76
2022/07/19 11:16:21;;;;;;;7.75;3.80;;;29.20;71.70;;;;;;5125209;27;20046;-75
2022/07/19 11:18:47;;;;;;;6.70;4.22;;;29.20;71.80;;;;;;5127489;27;20070;-75
2022/07/19 11:21:14;;;;;;;6.53;3.28;;;29.20;71.70;;;;;;5125702;27;20656;-76
2022/07/19 11:23:41;;;;;;;15.05;4.72;;;29.30;71.80;;;;;;5127539;27;20475;-75
2022/07/19 11:26:17;;;;;;;6.53;3.58;;;29.30;71.90;;;;;;5126896;27;20149;-75
2022/07/19 11:28:45;;;;;;;4.75;3.50;;;29.40;72.50;;;;;;5127394;27;20051;-75
2022/07/19 11:31:22;;;;;;;6.28;3.92;;;29.40;71.80;;;;;;5124742;27;20579;-75
2022/07/19 11:34:01;;;;;;;5.72;3.42;;;29.50;71.60;;;;;;5126061;27;20039;-75
2022/07/19 11:36:27;;;;;;;5.63;3.78;;;29.50;71.60;;;;;;5123532;27;20054;-75
2022/07/19 11:38:55;;;;;;;6.40;4.20;;;29.60;71.60;;;;;;5124865;27;20937;-75
2022/07/19 11:41:24;;;;;;;6.15;3.50;;;29.60;71.40;;;;;;5124550;27;20069;-75
2022/07/19 11:44:02;;;;;;;5.72;3.67;;;29.60;71.20;;;;;;5127808;27;20489;-75
2022/07/19 11:46:45;;;;;;;8.85;3.42;;;29.70;71.10;;;;;;5125977;27;20075;-75
2022/07/19 11:49:13;;;;;;;6.32;3.35;;;29.70;70.90;;;;;;5125246;27;20043;-75
2022/07/19 11:51:39;;;;;;;5.82;3.40;;;29.70;70.80;;;;;;5120039;27;20201;-76
2022/07/19 11:54:06;;;;;;;6.35;3.72;;;29.80;70.60;;;;;;5124398;27;20050;-75
2022/07/19 11:56:36;;;;;;;4.65;3.85;;;29.90;70.50;;;;;;5125248;27;20051;-75
2022/07/19 11:59:07;;;;;;;6.63;3.70;;;29.90;70.10;;;;;;5124786;27;20039;-75
2022/07/19 12:01:37;;;;;;;4.82;4.00;;;29.90;70.00;;;;;;5126257;27;20074;-75
2022/07/19 12:04:03;;;;;;;6.25;4.47;;;30.00;70.20;;;;;;5127017;27;20088;-75
2022/07/19 12:06:45;;;;;;;7.70;3.60;;;30.00;70.20;;;;;;5121234;27;20113;-75
2022/07/19 12:09:18;;;;;;;9.80;4.32;;;30.00;70.30;;;;;;5125126;27;20637;-75
2022/07/19 12:11:50;;;;;;;6.28;3.30;;;30.10;70.30;;;;;;5125604;27;20547;-75
2022/07/19 12:14:17;;;;;;;5.40;3.40;;;30.10;70.10;;;;;;5126722;27;20035;-76
2022/07/19 12:16:42;;;;;;;4.80;3.75;;;30.20;70.20;;;;;;5123879;27;20102;-75
2022/07/19 12:19:14;;;;;;;5.00;3.45;;;30.20;70.20;;;;;;5126366;27;20127;-75
2022/07/19 12:21:41;;;;;;;9.00;3.42;;;30.30;70.00;;;;;;5124947;27;20040;-76
2022/07/19 12:24:18;;;;;;;7.65;4.32;;;30.30;70.10;;;;;;5125389;27;20505;-75
2022/07/19 12:27:05;;;;;;;6.43;3.60;;;30.20;70.00;;;;;;5124546;27;21231;-76
2022/07/19 12:29:35;;;;;;;6.03;4.15;;;30.30;70.10;;;;;;5126142;27;20410;-75
2022/07/19 12:32:07;;;;;;;6.30;4.23;;;30.30;70.20;;;;;;5125666;27;20028;-75
2022/07/19 12:34:51;;;;;;;7.25;3.80;;;30.30;70.30;;;;;;5123922;27;20281;-76
2022/07/19 12:37:31;;;;;;;4.93;3.22;;;30.40;70.20;;;;;;5126216;27;20040;-75
2022/07/19 12:40:09;;;;;;;5.90;3.60;;;30.40;70.10;;;;;;5126247;27;20408;-75
2022/07/19 12:42:36;;;;;;;4.50;3.75;;;30.40;70.30;;;;;;5121870;27;20040;-75
2022/07/19 12:45:03;;;;;;;5.47;3.50;;;30.40;70.10;;;;;;5105577;27;20577;-75
2022/07/19 12:47:29;;;;;;;6.65;3.20;;;30.40;70.00;;;;;;5107670;27;20335;-75
2022/07/19 12:49:55;;;;;;;4.68;3.08;;;30.50;69.90;;;;;;5122311;27;20701;-78
2022/07/19 12:52:21;;;;;;;6.65;4.13;;;30.50;69.80;;;;;;5123348;27;20047;-78
2022/07/19 12:54:46;;;;;;;6.97;4.00;;;30.50;69.70;;;;;;5140738;27;20048;-79
2022/07/19 12:57:12;;;;;;;9.40;3.83;;;30.60;69.70;;;;;;5123368;27;20105;-79
2022/07/19 12:59:41;;;;;;;4.47;3.75;;;30.70;69.70;;;;;;5123038;27;20035;-79
2022/07/19 13:02:13;;;;;;;7.55;4.05;;;30.70;69.60;;;;;;5123494;27;20574;-79
2022/07/19 13:04:41;;;;;;;7.85;3.63;;;30.70;69.50;;;;;;5124249;27;20039;-79
2022/07/19 13:07:08;;;;;;;6.63;3.88;;;30.70;69.50;;;;;;5139953;27;20127;-79
2022/07/19 13:09:36;;;;;;;6.72;4.22;;;30.70;69.50;;;;;;5121290;27;20055;-79
2022/07/19 13:12:02;;;;;;;6.25;4.00;;;30.80;69.60;;;;;;5122576;27;20039;-79
2022/07/19 13:14:29;;;;;;;4.60;3.55;;;30.80;69.60;;;;;;5124011;27;20044;-79
2022/07/19 13:16:55;;;;;;;6.45;3.45;;;30.80;69.60;;;;;;5123354;27;20043;-79
2022/07/19 13:19:21;;;;;;;5.75;3.97;;;30.90;69.70;;;;;;5125450;27;20042;-79
2022/07/19 13:21:47;;;;;;;5.68;4.25;;;30.90;69.50;;;;;;5125119;27;20043;-79
2022/07/19 13:24:13;;;;;;;4.68;3.92;;;30.90;69.50;;;;;;5123522;27;20051;-79
2022/07/19 13:26:39;;;;;;;3.92;3.17;;;31.00;69.50;;;;;;5120868;27;20050;-79
2022/07/19 13:29:05;;;;;;;4.50;3.53;;;31.00;69.30;;;;;;5125537;27;20648;-79
2022/07/19 13:31:30;;;;;;;5.93;3.80;;;31.10;69.40;;;;;;5120946;27;20043;-79
2022/07/19 13:33:56;;;;;;;6.75;3.80;;;31.10;69.40;;;;;;5125433;27;20944;-76
2022/07/19 13:36:22;;;;;;;9.63;3.38;;;31.10;69.40;;;;;;5124551;27;20051;-73
2022/07/19 13:38:48;;;;;;;7.10;3.88;;;31.10;69.50;;;;;;5109116;27;20063;-74
2022/07/19 13:41:16;;;;;;;3.90;3.10;;;31.20;69.50;;;;;;5126544;27;20163;-74
2022/07/19 13:43:44;;;;;;;8.60;3.97;;;31.20;69.30;;;;;;5126008;27;20039;-74
2022/07/19 13:46:10;;;;;;;5.00;3.78;;;31.20;68.80;;;;;;5125129;27;20395;-74
2022/07/19 13:48:36;;;;;;;4.70;2.92;;;31.30;68.50;;;;;;5125114;27;20048;-74
2022/07/19 13:51:02;;;;;;;6.95;3.08;;;31.30;68.10;;;;;;5124613;27;20092;-74
2022/07/19 13:53:28;;;;;;;6.63;3.25;;;31.30;67.90;;;;;;5123945;27;20108;-74
2022/07/19 13:55:54;;;;;;;5.93;3.35;;;31.40;67.70;;;;;;5123703;27;20070;-75
2022/07/19 13:58:19;;;;;;;5.20;3.05;;;31.40;67.50;;;;;;5122700;27;20048;-74
2022/07/19 14:00:46;;;;;;;5.60;3.40;;;31.40;67.60;;;;;;5125393;27;20090;-74